RJSC/GAJ METAR and TAF weather

Enter ICAO airport designator
Station Type Date Time Source
RJSC METAR 2021/05/12 02:00 UTC NOAA

RJSC 120200Z VRB03KT 9999 FEW050 BKN/// 18/04 Q1020


Station Type Date Time Source
RJSC Decoded METAR 2021/05/12 02:00 UTC NOAA

Yamagata Airport, Japan (RJSC) 38-25N 140-22E 108M
May 11, 2021 - 10:00 PM EDT / 2021.05.12 0200 UTC
Wind: Variable at 3 MPH (3 KT):0
Visibility: greater than 7 mile(s):0
Sky conditions: mostly cloudy
Temperature: 64 F (18 C)
Dew Point: 39 F (4 C)
Relative Humidity: 39%
Pressure (altimeter): 30.12 in. Hg (1020 hPa)
ob: RJSC 120200Z VRB03KT 9999 FEW050 BKN/// 18/04 Q1020
cycle: 2

Station Type Date Time Source
RJSC TAF UTC NOAA

Error!

Example: see airport list